Time;durP1;ratioP1;P1;durP2;ratioP2;P2;SDS_P1;SDS_P2;PMS_P1;PMS_P2;Temp;Humidity;BMP_temperature;BMP_pressure;BME280_temperature;BME280_humidity;BME280_pressure;Samples;Min_cycle;Max_cycle;Signal;HPM_P1;HPM_P2
2022/10/26 00:01:20;;;;;;;;;;;;;;;;;;7369124;19;712;-57
2022/10/26 00:03:48;;;;;;;;;;;;;;;;;;7367532;19;1871;-56
2022/10/26 00:06:16;;;;;;;;;;;;;;;;;;7368946;19;858;-57
2022/10/26 00:08:44;;;;;;;;;;;;;;;;;;7367928;19;1777;-55
2022/10/26 00:11:12;;;;;;;;;;;;;;;;;;7369059;19;859;-60
2022/10/26 00:13:40;;;;;;;;;;;;;;;;;;7368929;19;863;-58
2022/10/26 00:16:09;;;;;;;;;;;;;;;;;;7368272;19;879;-59
2022/10/26 00:18:37;;;;;;;;;;;;;;;;;;7365420;19;1330;-58
2022/10/26 00:21:05;;;;;;;;;;;;;;;;;;7369144;19;1768;-58
2022/10/26 00:23:33;;;;;;;;;;;;;;;;;;7368743;19;1853;-58
2022/10/26 00:26:01;;;;;;;;;;;;;;;;;;7371123;19;1807;-55
2022/10/26 00:28:29;;;;;;;;;;;;;;;;;;7366146;19;1325;-59
2022/10/26 00:30:58;;;;;;;;;;;;;;;;;;7368401;19;866;-58
2022/10/26 00:33:26;;;;;;;;;;;;;;;;;;7368193;19;855;-59
2022/10/26 00:35:54;;;;;;;;;;;;;;;;;;7368321;19;776;-60
2022/10/26 00:38:22;;;;;;;;;;;;;;;;;;7365766;19;1263;-60
2022/10/26 00:40:50;;;;;;;;;;;;;;;;;;7368069;19;794;-58
2022/10/26 00:43:19;;;;;;;;;;;;;;;;;;7370690;19;1863;-58
2022/10/26 00:45:47;;;;;;;;;;;;;;;;;;7367266;19;803;-58
2022/10/26 00:48:15;;;;;;;;;;;;;;;;;;7364783;19;1267;-59
2022/10/26 00:50:43;;;;;;;;;;;;;;;;;;7365702;19;807;-59
2022/10/26 00:53:11;;;;;;;;;;;;;;;;;;7367511;19;819;-59
2022/10/26 00:55:39;;;;;;;;;;;;;;;;;;7367541;19;811;-56
2022/10/26 00:58:07;;;;;;;;;;;;;;;;;;7365412;19;1775;-55
2022/10/26 01:00:35;;;;;;;;;;;;;;;;;;7367837;19;1785;-56
2022/10/26 01:03:03;;;;;;;;;;;;;;;;;;7366875;19;2270;-57
2022/10/26 01:05:32;;;;;;;;;;;;;;;;;;7367669;19;849;-56
2022/10/26 01:08:00;;;;;;;;;;;;;;;;;;7365255;19;1342;-55
2022/10/26 01:10:28;;;;;;;;;;;;;;;;;;7367203;19;810;-58
2022/10/26 01:12:56;;;;;;;;;;;;;;;;;;7367064;19;807;-58
2022/10/26 01:15:24;;;;;;;;;;;;;;;;;;7369822;19;1786;-58
2022/10/26 01:17:52;;;;;;;;;;;;;;;;;;7369094;19;1848;-54
2022/10/26 01:20:20;;;;;;;;;;;;;;;;;;7368004;19;763;-60
2022/10/26 01:22:48;;;;;;;;;;;;;;;;;;7366655;19;1833;-59
2022/10/26 01:25:17;;;;;;;;;;;;;;;;;;7367338;19;896;-55
2022/10/26 01:27:45;;;;;;;;;;;;;;;;;;7366089;19;1270;-59
2022/10/26 01:30:13;;;;;;;;;;;;;;;;;;7368049;19;869;-59
2022/10/26 01:32:41;;;;;;;;;;;;;;;;;;7373887;19;1534;-57
2022/10/26 01:35:09;;;;;;;;;;;;;;;;;;7372563;19;807;-59
2022/10/26 01:37:37;;;;;;;;;;;;;;;;;;7371950;19;1285;-56
2022/10/26 01:40:05;;;;;;;;;;;;;;;;;;7373561;19;903;-56
2022/10/26 01:42:33;;;;;;;;;;;;;;;;;;7372928;19;838;-58
2022/10/26 01:45:02;;;;;;;;;;;;;;;;;;7370893;19;1849;-58
2022/10/26 01:47:30;;;;;;;;;;;;;;;;;;7366209;19;1765;-59
2022/10/26 01:49:58;;;;;;;;;;;;;;;;;;7365733;19;862;-58
2022/10/26 01:52:26;;;;;;;;;;;;;;;;;;7368782;19;2115;-59
2022/10/26 01:54:54;;;;;;;;;;;;;;;;;;7369759;19;2113;-60
2022/10/26 01:57:22;;;;;;;;;;;;;;;;;;7365687;19;1279;-60
2022/10/26 01:59:50;;;;;;;;;;;;;;;;;;7363890;19;803;-60
2022/10/26 02:02:18;;;;;;;;;;;;;;;;;;7366499;19;823;-59
2022/10/26 02:04:47;;;;;;;;;;;;;;;;;;7365166;19;1862;-57
2022/10/26 02:07:15;;;;;;;;;;;;;;;;;;7367658;19;1708;-57
2022/10/26 02:09:43;;;;;;;;;;;;;;;;;;7366964;19;1567;-57
2022/10/26 02:12:11;;;;;;;;;;;;;;;;;;7365821;19;818;-55
2022/10/26 02:14:39;;;;;;;;;;;;;;;;;;7365766;19;860;-59
2022/10/26 02:17:07;;;;;;;;;;;;;;;;;;7364935;19;1349;-57
2022/10/26 02:19:35;;;;;;;;;;;;;;;;;;7364378;19;871;-57
2022/10/26 02:22:03;;;;;;;;;;;;;;;;;;7368239;19;2039;-60
2022/10/26 02:24:31;;;;;;;;;;;;;;;;;;7365740;19;1851;-59
2022/10/26 02:27:00;;;;;;;;;;;;;;;;;;7365099;19;814;-56
2022/10/26 02:29:28;;;;;;;;;;;;;;;;;;7364211;19;856;-58
2022/10/26 02:31:56;;;;;;;;;;;;;;;;;;7364533;19;871;-58
2022/10/26 02:34:24;;;;;;;;;;;;;;;;;;7364567;19;862;-57
2022/10/26 02:36:52;;;;;;;;;;;;;;;;;;7364998;19;767;-59
2022/10/26 02:39:20;;;;;;;;;;;;;;;;;;7365388;19;1789;-60
2022/10/26 02:41:48;;;;;;;;;;;;;;;;;;7364596;19;870;-57
2022/10/26 02:44:16;;;;;;;;;;;;;;;;;;7363166;19;1834;-58
2022/10/26 02:46:45;;;;;;;;;;;;;;;;;;7364137;19;875;-58
2022/10/26 02:49:13;;;;;;;;;;;;;;;;;;7361052;19;1248;-59
2022/10/26 02:51:41;;;;;;;;;;;;;;;;;;7364065;19;811;-58
2022/10/26 02:54:09;;;;;;;;;;;;;;;;;;7364873;19;1830;-58
2022/10/26 02:56:37;;;;;;;;;;;;;;;;;;7364419;19;885;-54
2022/10/26 02:59:05;;;;;;;;;;;;;;;;;;7360940;19;1273;-59
2022/10/26 03:01:33;;;;;;;;;;;;;;;;;;7364745;19;2084;-58
2022/10/26 03:04:01;;;;;;;;;;;;;;;;;;7362435;19;1850;-54
2022/10/26 03:06:29;;;;;;;;;;;;;;;;;;7366368;19;1760;-58
2022/10/26 03:08:58;;;;;;;;;;;;;;;;;;7360721;19;1337;-56
2022/10/26 03:11:26;;;;;;;;;;;;;;;;;;7366364;19;1765;-58
2022/10/26 03:13:54;;;;;;;;;;;;;;;;;;7363785;19;830;-58
2022/10/26 03:16:22;;;;;;;;;;;;;;;;;;7363682;19;825;-59
2022/10/26 03:18:50;;;;;;;;;;;;;;;;;;7362356;19;1858;-58
2022/10/26 03:21:18;;;;;;;;;;;;;;;;;;7367982;19;882;-59
2022/10/26 03:23:49;;;;;;;;;;;;;;;;;;7367958;19;1868;-57
2022/10/26 03:26:17;;;;;;;;;;;;;;;;;;7369640;19;816;-56
2022/10/26 03:28:45;;;;;;;;;;;;;;;;;;7370616;19;1661;-59
2022/10/26 03:31:13;;;;;;;;;;;;;;;;;;7369915;19;818;-57
2022/10/26 03:33:41;;;;;;;;;;;;;;;;;;7369740;19;815;-60
2022/10/26 03:36:09;;;;;;;;;;;;;;;;;;7369880;19;811;-58
2022/10/26 03:38:38;;;;;;;;;;;;;;;;;;7367665;19;1365;-59
2022/10/26 03:41:06;;;;;;;;;;;;;;;;;;7369403;19;795;-60
2022/10/26 03:43:34;;;;;;;;;;;;;;;;;;7370370;19;1834;-59
2022/10/26 03:46:02;;;;;;;;;;;;;;;;;;7370649;19;1605;-59
2022/10/26 03:48:30;;;;;;;;;;;;;;;;;;7366770;19;1299;-56
2022/10/26 03:50:58;;;;;;;;;;;;;;;;;;7368517;19;854;-54
2022/10/26 03:53:26;;;;;;;;;;;;;;;;;;7369334;19;861;-55
2022/10/26 03:55:54;;;;;;;;;;;;;;;;;;7368623;19;855;-57
2022/10/26 03:58:23;;;;;;;;;;;;;;;;;;7370030;19;1538;-54
2022/10/26 04:00:51;;;;;;;;;;;;;;;;;;7368601;19;830;-58
2022/10/26 04:03:19;;;;;;;;;;;;;;;;;;7369143;19;1845;-60
2022/10/26 04:05:47;;;;;;;;;;;;;;;;;;7368705;19;813;-59
2022/10/26 04:08:15;;;;;;;;;;;;;;;;;;7366460;19;1286;-61
2022/10/26 04:10:43;;;;;;;;;;;;;;;;;;7368478;19;864;-60
2022/10/26 04:13:11;;;;;;;;;;;;;;;;;;7369886;19;1819;-57
2022/10/26 04:15:39;;;;;;;;;;;;;;;;;;7368586;19;811;-57
2022/10/26 04:18:08;;;;;;;;;;;;;;;;;;7366037;19;1297;-58
2022/10/26 04:20:37;;;;;;;;;;;;;;;;;;7367386;19;838;-56
2022/10/26 04:23:05;;;;;;;;;;;;;;;;;;7367734;19;923;-57
2022/10/26 04:25:34;;;;;;;;;;;;;;;;;;7365576;19;1820;-58
2022/10/26 04:28:02;;;;;;;;;;;;;;;;;;7365562;19;1264;-57
2022/10/26 04:30:30;;;;;;;;;;;;;;;;;;7370334;19;1827;-59
2022/10/26 04:32:58;;;;;;;;;;;;;;;;;;7370236;19;1795;-58
2022/10/26 04:35:26;;;;;;;;;;;;;;;;;;7368321;19;824;-61
2022/10/26 04:37:54;;;;;;;;;;;;;;;;;;7366961;19;1287;-58
2022/10/26 04:40:22;;;;;;;;;;;;;;;;;;7367872;19;857;-57
2022/10/26 04:42:51;;;;;;;;;;;;;;;;;;7365658;19;851;-57
2022/10/26 04:45:19;;;;;;;;;;;;;;;;;;7365140;19;1873;-54
2022/10/26 04:47:47;;;;;;;;;;;;;;;;;;7369842;19;1866;-55
2022/10/26 04:50:15;;;;;;;;;;;;;;;;;;7367402;19;835;-58
2022/10/26 04:52:43;;;;;;;;;;;;;;;;;;7370801;19;1789;-54
2022/10/26 04:55:11;;;;;;;;;;;;;;;;;;7366916;19;882;-57
2022/10/26 04:57:39;;;;;;;;;;;;;;;;;;7365584;19;1271;-59
2022/10/26 05:00:07;;;;;;;;;;;;;;;;;;7366963;19;827;-58
2022/10/26 05:02:36;;;;;;;;;;;;;;;;;;7368266;19;1612;-58
2022/10/26 05:05:04;;;;;;;;;;;;;;;;;;7368899;19;1861;-59
2022/10/26 05:07:32;;;;;;;;;;;;;;;;;;7366227;19;1283;-56
2022/10/26 05:10:00;;;;;;;;;;;;;;;;;;7366849;19;851;-59
2022/10/26 05:12:28;;;;;;;;;;;;;;;;;;7366436;19;852;-57
2022/10/26 05:14:57;;;;;;;;;;;;;;;;;;7365088;19;873;-58
2022/10/26 05:17:26;;;;;;;;;;;;;;;;;;7365851;19;1283;-58
2022/10/26 05:19:54;;;;;;;;;;;;;;;;;;7367882;19;1830;-58
2022/10/26 05:22:22;;;;;;;;;;;;;;;;;;7369194;19;1774;-58
2022/10/26 05:24:50;;;;;;;;;;;;;;;;;;7364595;19;1871;-57
2022/10/26 05:27:19;;;;;;;;;;;;;;;;;;7365447;19;1271;-54
2022/10/26 05:29:47;;;;;;;;;;;;;;;;;;7365480;19;809;-57
2022/10/26 05:32:15;;;;;;;;;;;;;;;;;;7366085;19;854;-58
2022/10/26 05:34:43;;;;;;;;;;;;;;;;;;7366921;19;1847;-60
2022/10/26 05:37:12;;;;;;;;;;;;;;;;;;7364173;19;1185;-59
2022/10/26 05:39:40;;;;;;;;;;;;;;;;;;7365595;19;859;-57
2022/10/26 05:42:08;;;;;;;;;;;;;;;;;;7366400;19;831;-59
2022/10/26 05:44:36;;;;;;;;;;;;;;;;;;7366701;19;1845;-59
2022/10/26 05:47:04;;;;;;;;;;;;;;;;;;7370095;19;1760;-58
2022/10/26 05:49:32;;;;;;;;;;;;;;;;;;7364822;19;1131;-58
2022/10/26 05:52:00;;;;;;;;;;;;;;;;;;7365750;19;807;-59
2022/10/26 05:54:28;;;;;;;;;;;;;;;;;;7365971;19;830;-59
2022/10/26 05:56:57;;;;;;;;;;;;;;;;;;7366774;19;795;-57
2022/10/26 05:59:25;;;;;;;;;;;;;;;;;;7362868;19;1744;-60
2022/10/26 06:01:53;;;;;;;;;;;;;;;;;;7369693;19;1891;-59
2022/10/26 06:04:21;;;;;;;;;;;;;;;;;;7366593;19;1869;-60
2022/10/26 06:06:49;;;;;;;;;;;;;;;;;;7366914;19;816;-58
2022/10/26 06:09:17;;;;;;;;;;;;;;;;;;7362843;19;1286;-58
2022/10/26 06:11:45;;;;;;;;;;;;;;;;;;7368388;19;804;-60
2022/10/26 06:14:13;;;;;;;;;;;;;;;;;;7366218;19;791;-56
2022/10/26 06:16:41;;;;;;;;;;;;;;;;;;7367974;19;1682;-58
2022/10/26 06:19:10;;;;;;;;;;;;;;;;;;7362087;19;1322;-58
2022/10/26 06:21:38;;;;;;;;;;;;;;;;;;7366682;19;838;-58
2022/10/26 06:24:06;;;;;;;;;;;;;;;;;;7364498;19;1833;-59
2022/10/26 06:26:34;;;;;;;;;;;;;;;;;;7366993;19;2038;-58
2022/10/26 06:29:02;;;;;;;;;;;;;;;;;;7362959;19;1278;-58
2022/10/26 06:31:30;;;;;;;;;;;;;;;;;;7365441;19;1088;-56
2022/10/26 06:33:58;;;;;;;;;;;;;;;;;;7366823;19;870;-57
2022/10/26 06:36:26;;;;;;;;;;;;;;;;;;7364917;19;851;-58
2022/10/26 06:38:55;;;;;;;;;;;;;;;;;;7361761;19;1252;-59
2022/10/26 06:41:23;;;;;;;;;;;;;;;;;;7366890;19;1804;-60
2022/10/26 06:43:51;;;;;;;;;;;;;;;;;;7367633;19;1647;-58
2022/10/26 06:46:20;;;;;;;;;;;;;;;;;;7360738;19;1838;-59
2022/10/26 06:48:48;;;;;;;;;;;;;;;;;;7361405;19;1345;-59
2022/10/26 06:51:16;;;;;;;;;;;;;;;;;;7364414;19;816;-58
2022/10/26 06:53:44;;;;;;;;;;;;;;;;;;7364130;19;845;-55
2022/10/26 06:56:12;;;;;;;;;;;;;;;;;;7362960;19;828;-57
2022/10/26 06:58:40;;;;;;;;;;;;;;;;;;7365213;19;1706;-60
2022/10/26 07:01:08;;;;;;;;;;;;;;;;;;7363414;19;861;-61
2022/10/26 07:03:36;;;;;;;;;;;;;;;;;;7364495;19;827;-61
2022/10/26 07:06:04;;;;;;;;;;;;;;;;;;7361869;19;1842;-61
2022/10/26 07:08:33;;;;;;;;;;;;;;;;;;7362021;19;1277;-61
2022/10/26 07:11:01;;;;;;;;;;;;;;;;;;7364369;19;770;-61
2022/10/26 07:13:29;;;;;;;;;;;;;;;;;;7365462;19;1793;-60
2022/10/26 07:15:57;;;;;;;;;;;;;;;;;;7366765;19;1839;-59
2022/10/26 07:18:25;;;;;;;;;;;;;;;;;;7361190;19;1290;-61
2022/10/26 07:20:53;;;;;;;;;;;;;;;;;;7367613;19;1831;-60
2022/10/26 07:23:22;;;;;;;;;;;;;;;;;;7363753;19;854;-60
2022/10/26 07:25:50;;;;;;;;;;;;;;;;;;7362107;19;1838;-58
2022/10/26 07:28:18;;;;;;;;;;;;;;;;;;7361073;19;1399;-60
2022/10/26 07:30:46;;;;;;;;;;;;;;;;;;7363657;19;795;-60
2022/10/26 07:33:14;;;;;;;;;;;;;;;;;;7367595;19;1824;-60
2022/10/26 07:35:42;;;;;;;;;;;;;;;;;;7363010;19;850;-59
2022/10/26 07:38:10;;;;;;;;;;;;;;;;;;7361389;19;1365;-61
2022/10/26 07:40:39;;;;;;;;;;;;;;;;;;7365714;19;1366;-57
2022/10/26 07:43:07;;;;;;;;;;;;;;;;;;7362981;19;853;-60
2022/10/26 07:45:35;;;;;;;;;;;;;;;;;;7359826;19;1834;-60
2022/10/26 07:48:03;;;;;;;;;;;;;;;;;;7360550;19;1345;-57
2022/10/26 07:50:31;;;;;;;;;;;;;;;;;;7362276;19;866;-56
2022/10/26 07:52:59;;;;;;;;;;;;;;;;;;7362268;19;790;-60
2022/10/26 07:55:28;;;;;;;;;;;;;;;;;;7363635;19;1735;-60
2022/10/26 07:57:56;;;;;;;;;;;;;;;;;;7360670;19;1286;-60
2022/10/26 08:00:24;;;;;;;;;;;;;;;;;;7362117;19;827;-59
2022/10/26 08:02:52;;;;;;;;;;;;;;;;;;7362696;19;811;-59
2022/10/26 08:05:20;;;;;;;;;;;;;;;;;;7361335;19;1855;-60
2022/10/26 08:07:49;;;;;;;;;;;;;;;;;;7368466;19;1586;-57
2022/10/26 08:10:17;;;;;;;;;;;;;;;;;;7377850;19;879;-57
2022/10/26 08:12:45;;;;;;;;;;;;;;;;;;7377293;19;852;-60
2022/10/26 08:15:13;;;;;;;;;;;;;;;;;;7376511;19;779;-58
2022/10/26 08:17:41;;;;;;;;;;;;;;;;;;7377357;19;1347;-55
2022/10/26 08:20:09;;;;;;;;;;;;;;;;;;7375673;19;816;-55
2022/10/26 08:22:37;;;;;;;;;;;;;;;;;;7370100;19;861;-59
2022/10/26 08:25:05;;;;;;;;;;;;;;;;;;7368512;19;1841;-58
2022/10/26 08:27:34;;;;;;;;;;;;;;;;;;7368337;19;1295;-61
2022/10/26 08:30:02;;;;;;;;;;;;;;;;;;7369003;19;835;-57
2022/10/26 08:32:30;;;;;;;;;;;;;;;;;;7368498;19;791;-61
2022/10/26 08:34:58;;;;;;;;;;;;;;;;;;7368605;19;819;-57
2022/10/26 08:37:26;;;;;;;;;;;;;;;;;;7366840;19;1281;-57
2022/10/26 08:39:54;;;;;;;;;;;;;;;;;;7367574;19;873;-55
2022/10/26 08:42:22;;;;;;;;;;;;;;;;;;7367901;19;783;-56
2022/10/26 08:44:51;;;;;;;;;;;;;;;;;;7366519;19;1861;-58
2022/10/26 08:47:19;;;;;;;;;;;;;;;;;;7366955;19;1334;-60
2022/10/26 08:49:47;;;;;;;;;;;;;;;;;;7368581;19;1710;-57
2022/10/26 08:52:15;;;;;;;;;;;;;;;;;;7368191;19;811;-54
2022/10/26 08:54:43;;;;;;;;;;;;;;;;;;7367846;19;932;-58
2022/10/26 08:57:11;;;;;;;;;;;;;;;;;;7367361;19;1219;-58
2022/10/26 08:59:39;;;;;;;;;;;;;;;;;;7366367;19;811;-55
2022/10/26 09:02:07;;;;;;;;;;;;;;;;;;7367209;19;827;-60
2022/10/26 09:04:36;;;;;;;;;;;;;;;;;;7367986;19;831;-59
2022/10/26 09:07:04;;;;;;;;;;;;;;;;;;7365217;19;1837;-60
2022/10/26 09:09:32;;;;;;;;;;;;;;;;;;7370867;19;1799;-58
2022/10/26 09:12:00;;;;;;;;;;;;;;;;;;7365661;19;861;-58
2022/10/26 09:14:28;;;;;;;;;;;;;;;;;;7367213;19;804;-58
2022/10/26 09:16:56;;;;;;;;;;;;;;;;;;7367274;19;810;-60
2022/10/26 09:19:24;;;;;;;;;;;;;;;;;;7362918;19;1691;-56
2022/10/26 09:21:52;;;;;;;;;;;;;;;;;;7367319;19;853;-60
2022/10/26 09:24:22;;;;;;;;;;;;;;;;;;7367288;19;850;-60
2022/10/26 09:26:50;;;;;;;;;;;;;;;;;;7364467;19;1848;-59
2022/10/26 09:29:19;;;;;;;;;;;;;;;;;;7363527;19;1321;-57
2022/10/26 09:31:47;;;;;;;;;;;;;;;;;;7367785;19;783;-57
2022/10/26 09:34:15;;;;;;;;;;;;;;;;;;7367634;19;814;-59
2022/10/26 09:36:43;;;;;;;;;;;;;;;;;;7367324;19;837;-58
2022/10/26 09:39:12;;;;;;;;;;;;;;;;;;7363446;19;1314;-60
2022/10/26 09:41:40;;;;;;;;;;;;;;;;;;7365650;19;830;-60
2022/10/26 09:44:08;;;;;;;;;;;;;;;;;;7366653;19;799;-59
2022/10/26 09:46:37;;;;;;;;;;;;;;;;;;7364673;19;1846;-58
2022/10/26 09:49:05;;;;;;;;;;;;;;;;;;7363351;19;1334;-59
2022/10/26 09:51:33;;;;;;;;;;;;;;;;;;7366950;19;847;-59
2022/10/26 09:54:02;;;;;;;;;;;;;;;;;;7366189;19;850;-59
2022/10/26 09:56:30;;;;;;;;;;;;;;;;;;7366340;19;886;-61
2022/10/26 09:59:00;;;;;;;;;;;;;;;;;;7363131;19;1306;-61
2022/10/26 10:01:29;;;;;;;;;;;;;;;;;;7367085;19;1025;-59
2022/10/26 10:03:57;;;;;;;;;;;;;;;;;;7366194;19;863;-56
2022/10/26 10:06:26;;;;;;;;;;;;;;;;;;7364774;19;1841;-60
2022/10/26 10:08:54;;;;;;;;;;;;;;;;;;7365920;19;1837;-60
2022/10/26 10:11:22;;;;;;;;;;;;;;;;;;7366002;19;783;-61
2022/10/26 10:13:50;;;;;;;;;;;;;;;;;;7365360;19;822;-60
2022/10/26 10:16:19;;;;;;;;;;;;;;;;;;7366244;19;1824;-58
2022/10/26 10:18:47;;;;;;;;;;;;;;;;;;7362350;19;1345;-59
2022/10/26 10:21:15;;;;;;;;;;;;;;;;;;7364792;19;857;-54
2022/10/26 10:23:43;;;;;;;;;;;;;;;;;;7365604;19;831;-61
2022/10/26 10:26:12;;;;;;;;;;;;;;;;;;7367088;19;1838;-59
2022/10/26 10:28:41;;;;;;;;;;;;;;;;;;7362856;19;1284;-59
2022/10/26 10:31:09;;;;;;;;;;;;;;;;;;7367026;19;1767;-60
2022/10/26 10:33:37;;;;;;;;;;;;;;;;;;7368369;19;1799;-58
2022/10/26 10:36:05;;;;;;;;;;;;;;;;;;7370492;19;1835;-61
2022/10/26 10:38:33;;;;;;;;;;;;;;;;;;7362534;19;1379;-59
2022/10/26 10:41:02;;;;;;;;;;;;;;;;;;7364841;19;798;-61
2022/10/26 10:43:30;;;;;;;;;;;;;;;;;;7365842;19;1772;-60
2022/10/26 10:45:58;;;;;;;;;;;;;;;;;;7364671;19;1841;-58
2022/10/26 10:48:27;;;;;;;;;;;;;;;;;;7361965;19;1286;-57
2022/10/26 10:50:55;;;;;;;;;;;;;;;;;;7364087;19;794;-60
2022/10/26 10:53:24;;;;;;;;;;;;;;;;;;7364180;19;832;-58
2022/10/26 10:55:52;;;;;;;;;;;;;;;;;;7364629;19;905;-56
2022/10/26 10:58:20;;;;;;;;;;;;;;;;;;7364339;19;1779;-58
2022/10/26 11:00:48;;;;;;;;;;;;;;;;;;7366831;19;1813;-58
2022/10/26 11:03:16;;;;;;;;;;;;;;;;;;7369296;19;846;-58
2022/10/26 11:05:46;;;;;;;;;;;;;;;;;;7369320;19;1838;-60
2022/10/26 11:08:14;;;;;;;;;;;;;;;;;;7368222;19;1350;-60
2022/10/26 11:10:43;;;;;;;;;;;;;;;;;;7370086;19;791;-59
2022/10/26 11:13:11;;;;;;;;;;;;;;;;;;7367815;19;2051;-61
2022/10/26 11:15:39;;;;;;;;;;;;;;;;;;7367398;19;1316;-58
2022/10/26 11:18:08;;;;;;;;;;;;;;;;;;7364932;19;1799;-61
2022/10/26 11:20:36;;;;;;;;;;;;;;;;;;7365403;19;1560;-59
2022/10/26 11:23:04;;;;;;;;;;;;;;;;;;7367807;19;1857;-59
2022/10/26 11:25:32;;;;;;;;;;;;;;;;;;7363016;19;1837;-59
2022/10/26 11:28:00;;;;;;;;;;;;;;;;;;7361116;19;1349;-60
2022/10/26 11:30:29;;;;;;;;;;;;;;;;;;7363324;19;867;-59
2022/10/26 11:32:57;;;;;;;;;;;;;;;;;;7363202;19;864;-59
2022/10/26 11:35:26;;;;;;;;;;;;;;;;;;7364243;19;1792;-60
2022/10/26 11:37:54;;;;;;;;;;;;;;;;;;7360825;19;1364;-60
2022/10/26 11:40:22;;;;;;;;;;;;;;;;;;7363260;19;1671;-60
2022/10/26 11:42:50;;;;;;;;;;;;;;;;;;7369812;19;816;-61
2022/10/26 11:45:18;;;;;;;;;;;;;;;;;;7369258;19;801;-55
2022/10/26 11:47:46;;;;;;;;;;;;;;;;;;7366467;19;1847;-57
2022/10/26 11:50:14;;;;;;;;;;;;;;;;;;7372439;19;2119;-61
2022/10/26 11:52:42;;;;;;;;;;;;;;;;;;7372376;19;1814;-61
2022/10/26 11:55:11;;;;;;;;;;;;;;;;;;7369623;19;810;-61
2022/10/26 11:57:39;;;;;;;;;;;;;;;;;;7368113;19;1274;-61
2022/10/26 12:00:07;;;;;;;;;;;;;;;;;;7369563;19;870;-60
2022/10/26 12:02:35;;;;;;;;;;;;;;;;;;7369318;19;1814;-60
2022/10/26 12:05:03;;;;;;;;;;;;;;;;;;7370700;19;1735;-55
2022/10/26 12:07:32;;;;;;;;;;;;;;;;;;7371492;19;1852;-61
2022/10/26 12:10:00;;;;;;;;;;;;;;;;;;7368686;19;762;-60
2022/10/26 12:12:29;;;;;;;;;;;;;;;;;;7366881;19;2116;-58
2022/10/26 12:14:57;;;;;;;;;;;;;;;;;;7369088;19;1761;-60
2022/10/26 12:17:25;;;;;;;;;;;;;;;;;;7368120;19;1345;-56
2022/10/26 12:19:53;;;;;;;;;;;;;;;;;;7368254;19;820;-60
2022/10/26 12:22:21;;;;;;;;;;;;;;;;;;7368286;19;861;-61
2022/10/26 12:24:50;;;;;;;;;;;;;;;;;;7368770;19;818;-60
2022/10/26 12:27:18;;;;;;;;;;;;;;;;;;7368523;19;1838;-61
2022/10/26 12:29:46;;;;;;;;;;;;;;;;;;7367829;19;851;-59
2022/10/26 12:32:14;;;;;;;;;;;;;;;;;;7368349;19;811;-59
2022/10/26 12:34:42;;;;;;;;;;;;;;;;;;7368269;19;824;-60
2022/10/26 12:37:10;;;;;;;;;;;;;;;;;;7368738;19;1814;-57
2022/10/26 12:39:39;;;;;;;;;;;;;;;;;;7368876;19;1673;-59
2022/10/26 12:42:07;;;;;;;;;;;;;;;;;;7368289;19;804;-60
2022/10/26 12:44:35;;;;;;;;;;;;;;;;;;7368425;19;831;-61
2022/10/26 12:47:03;;;;;;;;;;;;;;;;;;7366270;19;1859;-59
2022/10/26 12:49:31;;;;;;;;;;;;;;;;;;7369310;19;1797;-62
2022/10/26 12:51:59;;;;;;;;;;;;;;;;;;7369185;19;1819;-61
2022/10/26 12:54:27;;;;;;;;;;;;;;;;;;7369459;19;1816;-62
2022/10/26 12:56:56;;;;;;;;;;;;;;;;;;7368161;19;924;-61
2022/10/26 12:59:24;;;;;;;;;;;;;;;;;;7365204;19;1271;-57
2022/10/26 13:01:52;;;;;;;;;;;;;;;;;;7368433;19;816;-61
2022/10/26 13:04:21;;;;;;;;;;;;;;;;;;7371375;19;1777;-59
2022/10/26 13:06:49;;;;;;;;;;;;;;;;;;7367235;19;1839;-56
2022/10/26 13:09:17;;;;;;;;;;;;;;;;;;7366203;19;1267;-61
2022/10/26 13:11:45;;;;;;;;;;;;;;;;;;7371001;19;1777;-62
2022/10/26 13:14:13;;;;;;;;;;;;;;;;;;7370294;19;1831;-60
2022/10/26 13:16:41;;;;;;;;;;;;;;;;;;7370782;19;815;-62
2022/10/26 13:19:10;;;;;;;;;;;;;;;;;;7367052;19;1291;-61
2022/10/26 13:21:38;;;;;;;;;;;;;;;;;;7368435;19;875;-61
2022/10/26 13:24:08;;;;;;;;;;;;;;;;;;7370094;19;815;-57
2022/10/26 13:26:36;;;;;;;;;;;;;;;;;;7369609;19;1845;-58
2022/10/26 13:29:05;;;;;;;;;;;;;;;;;;7365121;19;1444;-59
2022/10/26 13:31:33;;;;;;;;;;;;;;;;;;7367584;19;769;-60
2022/10/26 13:34:01;;;;;;;;;;;;;;;;;;7367458;19;854;-59
2022/10/26 13:36:29;;;;;;;;;;;;;;;;;;7366333;19;832;-60
2022/10/26 13:38:57;;;;;;;;;;;;;;;;;;7364328;19;1342;-58
2022/10/26 13:41:27;;;;;;;;;;;;;;;;;;7371012;19;1800;-61
2022/10/26 13:43:55;;;;;;;;;;;;;;;;;;7367760;19;851;-59
2022/10/26 13:46:23;;;;;;;;;;;;;;;;;;7366024;19;1845;-60
2022/10/26 13:48:51;;;;;;;;;;;;;;;;;;7367212;19;1365;-61
2022/10/26 13:51:19;;;;;;;;;;;;;;;;;;7371065;19;908;-58
2022/10/26 13:53:48;;;;;;;;;;;;;;;;;;7375647;19;1774;-62
2022/10/26 13:56:17;;;;;;;;;;;;;;;;;;7370401;19;807;-62
2022/10/26 13:58:47;;;;;;;;;;;;;;;;;;7364432;19;1330;-61
2022/10/26 14:01:15;;;;;;;;;;;;;;;;;;7366176;19;804;-61
2022/10/26 14:03:43;;;;;;;;;;;;;;;;;;7366106;19;783;-59
2022/10/26 14:06:11;;;;;;;;;;;;;;;;;;7363825;19;771;-62
2022/10/26 14:08:40;;;;;;;;;;;;;;;;;;7364360;19;1874;-60
2022/10/26 14:11:08;;;;;;;;;;;;;;;;;;7368691;19;1799;-61
2022/10/26 14:13:36;;;;;;;;;;;;;;;;;;7366773;19;827;-61
2022/10/26 14:16:04;;;;;;;;;;;;;;;;;;7370368;19;1803;-61
2022/10/26 14:18:33;;;;;;;;;;;;;;;;;;7362405;19;1261;-60
2022/10/26 14:21:01;;;;;;;;;;;;;;;;;;7365721;19;851;-61
2022/10/26 14:23:29;;;;;;;;;;;;;;;;;;7370414;19;1916;-56
2022/10/26 14:25:57;;;;;;;;;;;;;;;;;;7367846;19;811;-57
2022/10/26 14:28:25;;;;;;;;;;;;;;;;;;7368445;19;1864;-60
2022/10/26 14:30:56;;;;;;;;;;;;;;;;;;7367974;19;868;-61
2022/10/26 14:33:24;;;;;;;;;;;;;;;;;;7369140;19;725;-58
2022/10/26 14:35:52;;;;;;;;;;;;;;;;;;7368858;19;823;-57
2022/10/26 14:38:20;;;;;;;;;;;;;;;;;;7368929;19;1671;-63
2022/10/26 14:40:48;;;;;;;;;;;;;;;;;;7373257;19;1650;-62
2022/10/26 14:43:16;;;;;;;;;;;;;;;;;;7370215;19;824;-60
2022/10/26 14:45:44;;;;;;;;;;;;;;;;;;7368872;19;816;-59
2022/10/26 14:48:12;;;;;;;;;;;;;;;;;;7367503;19;1826;-57
2022/10/26 14:50:40;;;;;;;;;;;;;;;;;;7373504;19;832;-60
2022/10/26 14:53:09;;;;;;;;;;;;;;;;;;7378675;19;1796;-61
2022/10/26 14:55:37;;;;;;;;;;;;;;;;;;7374199;19;823;-59
2022/10/26 14:58:05;;;;;;;;;;;;;;;;;;7373708;19;1792;-55
2022/10/26 15:00:33;;;;;;;;;;;;;;;;;;7372396;19;823;-59
2022/10/26 15:03:01;;;;;;;;;;;;;;;;;;7370302;19;1760;-61
2022/10/26 15:05:31;;;;;;;;;;;;;;;;;;7369842;19;1770;-60
2022/10/26 15:07:59;;;;;;;;;;;;;;;;;;7363557;19;1857;-59
2022/10/26 15:10:27;;;;;;;;;;;;;;;;;;7367299;19;1774;-60
2022/10/26 15:12:55;;;;;;;;;;;;;;;;;;7366635;19;1769;-62
2022/10/26 15:15:23;;;;;;;;;;;;;;;;;;7364697;19;830;-60
2022/10/26 15:17:51;;;;;;;;;;;;;;;;;;7369652;19;1281;-59
2022/10/26 15:20:19;;;;;;;;;;;;;;;;;;7370950;19;855;-57
2022/10/26 15:22:48;;;;;;;;;;;;;;;;;;7370131;19;827;-60
2022/10/26 15:25:16;;;;;;;;;;;;;;;;;;7374086;19;1784;-60
2022/10/26 15:27:44;;;;;;;;;;;;;;;;;;7368695;19;1845;-58
2022/10/26 15:30:12;;;;;;;;;;;;;;;;;;7371003;19;1835;-60
2022/10/26 15:32:40;;;;;;;;;;;;;;;;;;7368217;19;854;-61
2022/10/26 15:35:08;;;;;;;;;;;;;;;;;;7371852;19;1792;-56
2022/10/26 15:37:36;;;;;;;;;;;;;;;;;;7368739;19;1282;-57
2022/10/26 15:40:04;;;;;;;;;;;;;;;;;;7371491;19;830;-56
2022/10/26 15:42:33;;;;;;;;;;;;;;;;;;7368973;19;819;-57
2022/10/26 15:45:01;;;;;;;;;;;;;;;;;;7369314;19;853;-56
2022/10/26 15:47:29;;;;;;;;;;;;;;;;;;7369499;19;1875;-59
2022/10/26 15:49:57;;;;;;;;;;;;;;;;;;7371246;19;1872;-57
2022/10/26 15:52:25;;;;;;;;;;;;;;;;;;7372974;19;2149;-53
2022/10/26 15:54:53;;;;;;;;;;;;;;;;;;7372934;19;1772;-58
2022/10/26 15:57:21;;;;;;;;;;;;;;;;;;7371138;19;1783;-56
2022/10/26 15:59:49;;;;;;;;;;;;;;;;;;7368627;19;780;-56
2022/10/26 16:02:18;;;;;;;;;;;;;;;;;;7369496;19;813;-56
2022/10/26 16:04:46;;;;;;;;;;;;;;;;;;7371418;19;1183;-55
2022/10/26 16:07:14;;;;;;;;;;;;;;;;;;7367351;19;1855;-57
2022/10/26 16:09:43;;;;;;;;;;;;;;;;;;7368572;19;819;-59
2022/10/26 16:12:11;;;;;;;;;;;;;;;;;;7369884;19;855;-56
2022/10/26 16:14:39;;;;;;;;;;;;;;;;;;7369958;19;881;-57
2022/10/26 16:17:07;;;;;;;;;;;;;;;;;;7371741;19;1603;-58
2022/10/26 16:19:35;;;;;;;;;;;;;;;;;;7371699;19;1786;-58
2022/10/26 16:22:03;;;;;;;;;;;;;;;;;;7369117;19;817;-61
2022/10/26 16:24:31;;;;;;;;;;;;;;;;;;7370536;19;1532;-59
2022/10/26 16:27:00;;;;;;;;;;;;;;;;;;7365673;19;1849;-61
2022/10/26 16:29:28;;;;;;;;;;;;;;;;;;7368863;19;2262;-56
2022/10/26 16:31:56;;;;;;;;;;;;;;;;;;7370398;19;1535;-57
2022/10/26 16:34:24;;;;;;;;;;;;;;;;;;7372128;19;1797;-56
2022/10/26 16:36:52;;;;;;;;;;;;;;;;;;7372784;19;931;-60
2022/10/26 16:39:20;;;;;;;;;;;;;;;;;;7370008;19;1829;-55
2022/10/26 16:41:48;;;;;;;;;;;;;;;;;;7368939;19;851;-61
2022/10/26 16:44:16;;;;;;;;;;;;;;;;;;7368515;19;757;-60
2022/10/26 16:46:44;;;;;;;;;;;;;;;;;;7369344;19;857;-57
2022/10/26 16:49:13;;;;;;;;;;;;;;;;;;7367966;19;1833;-57
2022/10/26 16:51:41;;;;;;;;;;;;;;;;;;7368231;19;858;-55
2022/10/26 16:54:09;;;;;;;;;;;;;;;;;;7368493;19;855;-61
2022/10/26 16:56:37;;;;;;;;;;;;;;;;;;7368796;19;1708;-60
2022/10/26 16:59:05;;;;;;;;;;;;;;;;;;7366178;19;1738;-59
2022/10/26 17:01:34;;;;;;;;;;;;;;;;;;7370416;19;1505;-61
2022/10/26 17:04:02;;;;;;;;;;;;;;;;;;7368016;19;798;-59
2022/10/26 17:06:30;;;;;;;;;;;;;;;;;;7369870;19;1826;-59
2022/10/26 17:08:59;;;;;;;;;;;;;;;;;;7365134;19;1866;-57
2022/10/26 17:11:27;;;;;;;;;;;;;;;;;;7367288;19;808;-61
2022/10/26 17:13:55;;;;;;;;;;;;;;;;;;7367889;19;799;-58
2022/10/26 17:16:23;;;;;;;;;;;;;;;;;;7368103;19;803;-59